sensor_id;sensor_type;location;lat;lon;timestamp;temperature;humidity
56256;DHT22;57229;51.432;-2.598;2022-07-10T00:01:55;18.40;82.90
56256;DHT22;57229;51.432;-2.598;2022-07-10T00:04:21;18.30;82.90
56256;DHT22;57229;51.432;-2.598;2022-07-10T00:06:47;18.20;83.40
56256;DHT22;57229;51.432;-2.598;2022-07-10T00:09:15;18.20;84.00
56256;DHT22;57229;51.432;-2.598;2022-07-10T00:11:42;18.00;83.50
56256;DHT22;57229;51.432;-2.598;2022-07-10T00:14:08;18.00;83.90
56256;DHT22;57229;51.432;-2.598;2022-07-10T00:16:34;17.90;83.90
56256;DHT22;57229;51.432;-2.598;2022-07-10T00:19:00;17.90;83.80
56256;DHT22;57229;51.432;-2.598;2022-07-10T00:21:26;17.80;84.60
56256;DHT22;57229;51.432;-2.598;2022-07-10T00:23:52;17.80;84.20
56256;DHT22;57229;51.432;-2.598;2022-07-10T00:26:17;17.70;85.20
56256;DHT22;57229;51.432;-2.598;2022-07-10T00:28:43;17.60;84.70
56256;DHT22;57229;51.432;-2.598;2022-07-10T00:31:09;17.60;84.70
56256;DHT22;57229;51.432;-2.598;2022-07-10T00:33:36;17.50;85.10
56256;DHT22;57229;51.432;-2.598;2022-07-10T00:36:03;17.40;86.40
56256;DHT22;57229;51.432;-2.598;2022-07-10T00:38:30;17.30;87.40
56256;DHT22;57229;51.432;-2.598;2022-07-10T00:40:56;17.20;87.50
56256;DHT22;57229;51.432;-2.598;2022-07-10T00:43:22;17.20;88.00
56256;DHT22;57229;51.432;-2.598;2022-07-10T00:45:49;17.20;88.20
56256;DHT22;57229;51.432;-2.598;2022-07-10T00:48:14;17.10;88.80
56256;DHT22;57229;51.432;-2.598;2022-07-10T00:50:42;17.10;89.30
56256;DHT22;57229;51.432;-2.598;2022-07-10T00:53:09;17.00;89.90
56256;DHT22;57229;51.432;-2.598;2022-07-10T00:55:36;17.00;90.30
56256;DHT22;57229;51.432;-2.598;2022-07-10T00:58:06;16.90;90.40
56256;DHT22;57229;51.432;-2.598;2022-07-10T01:00:33;16.90;90.20
56256;DHT22;57229;51.432;-2.598;2022-07-10T01:02:59;16.90;90.20
56256;DHT22;57229;51.432;-2.598;2022-07-10T01:05:24;16.90;90.40
56256;DHT22;57229;51.432;-2.598;2022-07-10T01:07:50;16.90;90.50
56256;DHT22;57229;51.432;-2.598;2022-07-10T01:10:16;16.90;90.70
56256;DHT22;57229;51.432;-2.598;2022-07-10T01:12:42;16.80;90.90
56256;DHT22;57229;51.432;-2.598;2022-07-10T01:15:09;16.80;91.10
56256;DHT22;57229;51.432;-2.598;2022-07-10T01:17:35;16.70;91.20
56256;DHT22;57229;51.432;-2.598;2022-07-10T01:20:08;16.70;91.10
56256;DHT22;57229;51.432;-2.598;2022-07-10T01:22:35;16.60;91.10
56256;DHT22;57229;51.432;-2.598;2022-07-10T01:25:02;16.60;91.30
56256;DHT22;57229;51.432;-2.598;2022-07-10T01:27:28;16.60;91.90
56256;DHT22;57229;51.432;-2.598;2022-07-10T01:29:54;16.50;91.70
56256;DHT22;57229;51.432;-2.598;2022-07-10T01:32:19;16.60;92.00
56256;DHT22;57229;51.432;-2.598;2022-07-10T01:34:45;16.50;92.10
56256;DHT22;57229;51.432;-2.598;2022-07-10T01:37:12;16.50;92.50
56256;DHT22;57229;51.432;-2.598;2022-07-10T01:39:38;16.50;92.90
56256;DHT22;57229;51.432;-2.598;2022-07-10T01:42:04;16.50;93.10
56256;DHT22;57229;51.432;-2.598;2022-07-10T01:44:30;16.50;93.30
56256;DHT22;57229;51.432;-2.598;2022-07-10T01:46:55;16.50;93.50
56256;DHT22;57229;51.432;-2.598;2022-07-10T01:49:21;16.40;93.70
56256;DHT22;57229;51.432;-2.598;2022-07-10T01:51:47;16.40;94.00
56256;DHT22;57229;51.432;-2.598;2022-07-10T01:54:13;16.30;94.50
56256;DHT22;57229;51.432;-2.598;2022-07-10T01:56:39;16.30;94.80
56256;DHT22;57229;51.432;-2.598;2022-07-10T01:59:04;16.30;94.80
56256;DHT22;57229;51.432;-2.598;2022-07-10T02:01:31;16.20;95.20
56256;DHT22;57229;51.432;-2.598;2022-07-10T02:03:57;16.10;95.60
56256;DHT22;57229;51.432;-2.598;2022-07-10T02:06:41;16.10;95.90
56256;DHT22;57229;51.432;-2.598;2022-07-10T02:09:07;16.00;96.50
56256;DHT22;57229;51.432;-2.598;2022-07-10T02:11:32;15.90;96.80
56256;DHT22;57229;51.432;-2.598;2022-07-10T02:13:58;15.90;97.10
56256;DHT22;57229;51.432;-2.598;2022-07-10T02:16:24;15.80;97.40
56256;DHT22;57229;51.432;-2.598;2022-07-10T02:18:49;15.70;97.80
56256;DHT22;57229;51.432;-2.598;2022-07-10T02:21:15;15.70;98.20
56256;DHT22;57229;51.432;-2.598;2022-07-10T02:23:40;15.60;98.50
56256;DHT22;57229;51.432;-2.598;2022-07-10T02:26:06;15.50;99.00
56256;DHT22;57229;51.432;-2.598;2022-07-10T02:28:32;15.50;99.10
56256;DHT22;57229;51.432;-2.598;2022-07-10T02:30:58;16.30;99.70
56256;DHT22;57229;51.432;-2.598;2022-07-10T02:33:24;15.40;99.90
56256;DHT22;57229;51.432;-2.598;2022-07-10T02:35:50;15.40;99.90
56256;DHT22;57229;51.432;-2.598;2022-07-10T02:38:16;15.40;99.90
56256;DHT22;57229;51.432;-2.598;2022-07-10T02:40:41;15.40;99.90
56256;DHT22;57229;51.432;-2.598;2022-07-10T02:43:07;15.40;99.90
56256;DHT22;57229;51.432;-2.598;2022-07-10T02:45:33;15.40;99.90
56256;DHT22;57229;51.432;-2.598;2022-07-10T02:47:58;15.40;99.90
56256;DHT22;57229;51.432;-2.598;2022-07-10T02:50:24;15.40;99.90
56256;DHT22;57229;51.432;-2.598;2022-07-10T02:52:50;15.40;99.90
56256;DHT22;57229;51.432;-2.598;2022-07-10T02:55:15;15.40;99.90
56256;DHT22;57229;51.432;-2.598;2022-07-10T02:57:41;15.40;99.90
56256;DHT22;57229;51.432;-2.598;2022-07-10T03:00:07;15.30;99.90
56256;DHT22;57229;51.432;-2.598;2022-07-10T03:02:33;15.30;99.90
56256;DHT22;57229;51.432;-2.598;2022-07-10T03:04:59;15.30;99.90
56256;DHT22;57229;51.432;-2.598;2022-07-10T03:07:24;15.30;99.90
56256;DHT22;57229;51.432;-2.598;2022-07-10T03:09:50;15.20;99.90
56256;DHT22;57229;51.432;-2.598;2022-07-10T03:12:15;15.20;99.90
56256;DHT22;57229;51.432;-2.598;2022-07-10T03:14:41;15.20;99.90
56256;DHT22;57229;51.432;-2.598;2022-07-10T03:17:07;15.10;99.90
56256;DHT22;57229;51.432;-2.598;2022-07-10T03:19:32;15.10;99.90
56256;DHT22;57229;51.432;-2.598;2022-07-10T03:21:59;15.10;99.90
56256;DHT22;57229;51.432;-2.598;2022-07-10T03:24:25;15.10;99.90
56256;DHT22;57229;51.432;-2.598;2022-07-10T03:26:50;15.00;99.90
56256;DHT22;57229;51.432;-2.598;2022-07-10T03:29:16;15.00;99.90
56256;DHT22;57229;51.432;-2.598;2022-07-10T03:31:42;14.80;99.90
56256;DHT22;57229;51.432;-2.598;2022-07-10T03:34:08;14.80;99.90
56256;DHT22;57229;51.432;-2.598;2022-07-10T03:36:33;14.80;99.90
56256;DHT22;57229;51.432;-2.598;2022-07-10T03:38:59;14.80;99.90
56256;DHT22;57229;51.432;-2.598;2022-07-10T03:41:25;14.80;99.90
56256;DHT22;57229;51.432;-2.598;2022-07-10T03:43:50;14.70;99.90
56256;DHT22;57229;51.432;-2.598;2022-07-10T03:46:16;14.70;99.90
56256;DHT22;57229;51.432;-2.598;2022-07-10T03:48:42;14.60;99.90
56256;DHT22;57229;51.432;-2.598;2022-07-10T03:51:07;14.60;99.90
56256;DHT22;57229;51.432;-2.598;2022-07-10T03:53:33;14.40;99.90
56256;DHT22;57229;51.432;-2.598;2022-07-10T03:55:59;14.30;99.90
56256;DHT22;57229;51.432;-2.598;2022-07-10T03:58:26;14.20;99.90
56256;DHT22;57229;51.432;-2.598;2022-07-10T04:00:51;14.20;99.90
56256;DHT22;57229;51.432;-2.598;2022-07-10T04:03:17;14.10;99.90
56256;DHT22;57229;51.432;-2.598;2022-07-10T04:05:43;14.00;99.90
56256;DHT22;57229;51.432;-2.598;2022-07-10T04:08:09;14.00;99.90
56256;DHT22;57229;51.432;-2.598;2022-07-10T04:10:35;14.00;99.90
56256;DHT22;57229;51.432;-2.598;2022-07-10T04:13:01;13.90;99.90
56256;DHT22;57229;51.432;-2.598;2022-07-10T04:15:27;13.90;99.90
56256;DHT22;57229;51.432;-2.598;2022-07-10T04:17:53;14.00;99.90
56256;DHT22;57229;51.432;-2.598;2022-07-10T04:20:20;14.10;99.90
56256;DHT22;57229;51.432;-2.598;2022-07-10T04:22:45;14.10;99.90
56256;DHT22;57229;51.432;-2.598;2022-07-10T04:25:12;14.10;99.90
56256;DHT22;57229;51.432;-2.598;2022-07-10T04:27:37;14.10;99.90
56256;DHT22;57229;51.432;-2.598;2022-07-10T04:30:04;14.20;99.90
56256;DHT22;57229;51.432;-2.598;2022-07-10T04:32:30;14.20;99.90
56256;DHT22;57229;51.432;-2.598;2022-07-10T04:34:56;14.30;99.90
56256;DHT22;57229;51.432;-2.598;2022-07-10T04:37:21;14.30;99.90
56256;DHT22;57229;51.432;-2.598;2022-07-10T04:39:47;14.30;99.90
56256;DHT22;57229;51.432;-2.598;2022-07-10T04:42:13;14.30;99.90
56256;DHT22;57229;51.432;-2.598;2022-07-10T04:44:39;14.30;99.90
56256;DHT22;57229;51.432;-2.598;2022-07-10T04:47:05;14.40;99.90
56256;DHT22;57229;51.432;-2.598;2022-07-10T04:49:31;14.50;99.90
56256;DHT22;57229;51.432;-2.598;2022-07-10T04:51:57;14.50;99.90
56256;DHT22;57229;51.432;-2.598;2022-07-10T04:54:23;14.60;99.90
56256;DHT22;57229;51.432;-2.598;2022-07-10T04:56:49;14.60;99.90
56256;DHT22;57229;51.432;-2.598;2022-07-10T04:59:15;14.70;99.90
56256;DHT22;57229;51.432;-2.598;2022-07-10T05:01:40;14.70;99.90
56256;DHT22;57229;51.432;-2.598;2022-07-10T05:04:06;14.80;99.90
56256;DHT22;57229;51.432;-2.598;2022-07-10T05:06:32;14.80;99.90
56256;DHT22;57229;51.432;-2.598;2022-07-10T05:08:58;14.90;99.90
56256;DHT22;57229;51.432;-2.598;2022-07-10T05:11:25;14.90;99.90
56256;DHT22;57229;51.432;-2.598;2022-07-10T05:13:51;15.00;99.90
56256;DHT22;57229;51.432;-2.598;2022-07-10T05:16:17;15.00;99.90
56256;DHT22;57229;51.432;-2.598;2022-07-10T05:18:43;15.00;99.90
56256;DHT22;57229;51.432;-2.598;2022-07-10T05:21:09;15.10;99.90
56256;DHT22;57229;51.432;-2.598;2022-07-10T05:23:37;15.20;99.90
56256;DHT22;57229;51.432;-2.598;2022-07-10T05:26:03;15.20;99.90
56256;DHT22;57229;51.432;-2.598;2022-07-10T05:28:28;15.10;99.90
56256;DHT22;57229;51.432;-2.598;2022-07-10T05:30:54;15.20;99.90
56256;DHT22;57229;51.432;-2.598;2022-07-10T05:33:20;15.20;99.90
56256;DHT22;57229;51.432;-2.598;2022-07-10T05:35:46;15.30;99.90
56256;DHT22;57229;51.432;-2.598;2022-07-10T05:38:12;15.30;99.90
56256;DHT22;57229;51.432;-2.598;2022-07-10T05:40:37;15.30;99.90
56256;DHT22;57229;51.432;-2.598;2022-07-10T05:43:03;15.40;99.90
56256;DHT22;57229;51.432;-2.598;2022-07-10T05:45:29;15.50;99.90
56256;DHT22;57229;51.432;-2.598;2022-07-10T05:47:55;15.50;99.90
56256;DHT22;57229;51.432;-2.598;2022-07-10T05:50:21;15.60;99.90
56256;DHT22;57229;51.432;-2.598;2022-07-10T05:52:46;15.60;99.90
56256;DHT22;57229;51.432;-2.598;2022-07-10T05:55:12;15.70;99.90
56256;DHT22;57229;51.432;-2.598;2022-07-10T05:57:38;15.70;99.90
56256;DHT22;57229;51.432;-2.598;2022-07-10T06:00:05;15.90;99.90
56256;DHT22;57229;51.432;-2.598;2022-07-10T06:02:31;15.90;99.90
56256;DHT22;57229;51.432;-2.598;2022-07-10T06:04:57;16.00;99.90
56256;DHT22;57229;51.432;-2.598;2022-07-10T06:07:23;16.00;99.90
56256;DHT22;57229;51.432;-2.598;2022-07-10T06:09:49;16.10;99.90
56256;DHT22;57229;51.432;-2.598;2022-07-10T06:12:15;16.20;99.90
56256;DHT22;57229;51.432;-2.598;2022-07-10T06:14:42;16.20;99.90
56256;DHT22;57229;51.432;-2.598;2022-07-10T06:17:07;16.30;99.90
56256;DHT22;57229;51.432;-2.598;2022-07-10T06:19:33;16.30;99.90
56256;DHT22;57229;51.432;-2.598;2022-07-10T06:21:59;16.30;99.90
56256;DHT22;57229;51.432;-2.598;2022-07-10T06:24:44;16.40;99.90
56256;DHT22;57229;51.432;-2.598;2022-07-10T06:27:09;16.40;99.90
56256;DHT22;57229;51.432;-2.598;2022-07-10T06:29:35;16.50;99.90
56256;DHT22;57229;51.432;-2.598;2022-07-10T06:32:01;16.50;99.90
56256;DHT22;57229;51.432;-2.598;2022-07-10T06:34:26;16.60;99.90
56256;DHT22;57229;51.432;-2.598;2022-07-10T06:36:52;16.70;99.90
56256;DHT22;57229;51.432;-2.598;2022-07-10T06:39:17;16.80;99.90
56256;DHT22;57229;51.432;-2.598;2022-07-10T06:41:43;16.90;99.90
56256;DHT22;57229;51.432;-2.598;2022-07-10T06:44:09;17.00;99.90
56256;DHT22;57229;51.432;-2.598;2022-07-10T06:46:34;17.00;99.90
56256;DHT22;57229;51.432;-2.598;2022-07-10T06:49:00;17.20;99.90
56256;DHT22;57229;51.432;-2.598;2022-07-10T06:51:26;17.20;99.90
56256;DHT22;57229;51.432;-2.598;2022-07-10T06:53:52;17.30;99.90
56256;DHT22;57229;51.432;-2.598;2022-07-10T06:56:18;17.30;99.90
56256;DHT22;57229;51.432;-2.598;2022-07-10T06:58:44;17.40;99.90
56256;DHT22;57229;51.432;-2.598;2022-07-10T07:01:09;17.30;99.90
56256;DHT22;57229;51.432;-2.598;2022-07-10T07:03:35;17.40;99.90
56256;DHT22;57229;51.432;-2.598;2022-07-10T07:06:01;17.50;99.90
56256;DHT22;57229;51.432;-2.598;2022-07-10T07:08:29;17.70;99.90
56256;DHT22;57229;51.432;-2.598;2022-07-10T07:10:55;17.70;99.90
56256;DHT22;57229;51.432;-2.598;2022-07-10T07:13:21;17.80;99.90
56256;DHT22;57229;51.432;-2.598;2022-07-10T07:15:46;17.80;99.90
56256;DHT22;57229;51.432;-2.598;2022-07-10T07:18:22;17.90;99.90
56256;DHT22;57229;51.432;-2.598;2022-07-10T07:20:57;18.00;99.90
56256;DHT22;57229;51.432;-2.598;2022-07-10T07:23:41;18.10;99.90
56256;DHT22;57229;51.432;-2.598;2022-07-10T07:26:07;18.20;99.90
56256;DHT22;57229;51.432;-2.598;2022-07-10T07:28:33;18.30;99.90
56256;DHT22;57229;51.432;-2.598;2022-07-10T07:30:58;18.40;99.90
56256;DHT22;57229;51.432;-2.598;2022-07-10T07:33:25;18.50;99.90
56256;DHT22;57229;51.432;-2.598;2022-07-10T07:35:50;18.60;99.90
56256;DHT22;57229;51.432;-2.598;2022-07-10T07:38:16;18.70;99.90
56256;DHT22;57229;51.432;-2.598;2022-07-10T07:40:43;18.80;99.90
56256;DHT22;57229;51.432;-2.598;2022-07-10T07:43:09;18.80;99.90
56256;DHT22;57229;51.432;-2.598;2022-07-10T07:45:35;18.90;99.90
56256;DHT22;57229;51.432;-2.598;2022-07-10T07:48:01;18.80;99.90
56256;DHT22;57229;51.432;-2.598;2022-07-10T07:50:34;18.80;99.90
56256;DHT22;57229;51.432;-2.598;2022-07-10T07:53:02;19.00;99.90
56256;DHT22;57229;51.432;-2.598;2022-07-10T07:55:29;19.10;99.70
56256;DHT22;57229;51.432;-2.598;2022-07-10T07:57:56;19.20;99.90
56256;DHT22;57229;51.432;-2.598;2022-07-10T08:00:26;19.40;99.40
56256;DHT22;57229;51.432;-2.598;2022-07-10T08:02:53;19.50;99.00
56256;DHT22;57229;51.432;-2.598;2022-07-10T08:05:20;19.60;99.10
56256;DHT22;57229;51.432;-2.598;2022-07-10T08:07:49;19.60;98.80
56256;DHT22;57229;51.432;-2.598;2022-07-10T08:10:18;19.70;98.50
56256;DHT22;57229;51.432;-2.598;2022-07-10T08:12:44;19.70;98.60
56256;DHT22;57229;51.432;-2.598;2022-07-10T08:15:16;19.90;98.70
56256;DHT22;57229;51.432;-2.598;2022-07-10T08:17:42;20.20;98.40
56256;DHT22;57229;51.432;-2.598;2022-07-10T08:20:13;20.30;97.60
56256;DHT22;57229;51.432;-2.598;2022-07-10T08:22:40;20.30;97.20
56256;DHT22;57229;51.432;-2.598;2022-07-10T08:25:06;20.10;97.60
56256;DHT22;57229;51.432;-2.598;2022-07-10T08:27:32;20.20;97.60
56256;DHT22;57229;51.432;-2.598;2022-07-10T08:29:58;20.40;97.80
56256;DHT22;57229;51.432;-2.598;2022-07-10T08:32:24;20.60;97.00
56256;DHT22;57229;51.432;-2.598;2022-07-10T08:34:49;20.60;96.80
56256;DHT22;57229;51.432;-2.598;2022-07-10T08:37:15;20.50;96.90
56256;DHT22;57229;51.432;-2.598;2022-07-10T08:39:41;20.60;97.50
56256;DHT22;57229;51.432;-2.598;2022-07-10T08:42:08;20.90;96.10
56256;DHT22;57229;51.432;-2.598;2022-07-10T08:44:35;20.90;96.20
56256;DHT22;57229;51.432;-2.598;2022-07-10T08:47:02;20.70;96.10
56256;DHT22;57229;51.432;-2.598;2022-07-10T08:49:29;20.80;95.70
56256;DHT22;57229;51.432;-2.598;2022-07-10T08:52:02;20.90;96.30
56256;DHT22;57229;51.432;-2.598;2022-07-10T08:54:29;21.10;95.40
56256;DHT22;57229;51.432;-2.598;2022-07-10T08:57:00;21.30;94.90
56256;DHT22;57229;51.432;-2.598;2022-07-10T08:59:27;21.40;94.80
56256;DHT22;57229;51.432;-2.598;2022-07-10T09:01:54;21.70;94.70
56256;DHT22;57229;51.432;-2.598;2022-07-10T09:04:22;22.10;93.60
56256;DHT22;57229;51.432;-2.598;2022-07-10T09:06:48;22.60;93.40
56256;DHT22;57229;51.432;-2.598;2022-07-10T09:09:14;23.70;91.90
56256;DHT22;57229;51.432;-2.598;2022-07-10T09:11:40;24.80;90.30
56256;DHT22;57229;51.432;-2.598;2022-07-10T09:14:13;25.80;86.00
56256;DHT22;57229;51.432;-2.598;2022-07-10T09:16:46;26.10;84.60
56256;DHT22;57229;51.432;-2.598;2022-07-10T09:19:25;26.60;81.60
56256;DHT22;57229;51.432;-2.598;2022-07-10T09:22:00;27.00;79.50
56256;DHT22;57229;51.432;-2.598;2022-07-10T09:24:38;27.30;78.90
56256;DHT22;57229;51.432;-2.598;2022-07-10T09:27:04;27.60;76.00
56256;DHT22;57229;51.432;-2.598;2022-07-10T09:29:31;28.10;76.70
56256;DHT22;57229;51.432;-2.598;2022-07-10T09:32:02;28.10;75.40
56256;DHT22;57229;51.432;-2.598;2022-07-10T09:34:41;28.30;74.90
56256;DHT22;57229;51.432;-2.598;2022-07-10T09:37:26;28.60;73.10
56256;DHT22;57229;51.432;-2.598;2022-07-10T09:40:05;28.30;72.30
56256;DHT22;57229;51.432;-2.598;2022-07-10T09:42:32;28.30;72.70
56256;DHT22;57229;51.432;-2.598;2022-07-10T09:47:55;30.10;70.10
56256;DHT22;57229;51.432;-2.598;2022-07-10T09:52:50;31.20;66.20
56256;DHT22;57229;51.432;-2.598;2022-07-10T09:55:19;31.10;66.00
56256;DHT22;57229;51.432;-2.598;2022-07-10T09:57:52;30.90;66.50
56256;DHT22;57229;51.432;-2.598;2022-07-10T10:00:18;31.80;66.50
56256;DHT22;57229;51.432;-2.598;2022-07-10T10:02:44;32.60;63.90
56256;DHT22;57229;51.432;-2.598;2022-07-10T10:05:11;33.00;63.60
56256;DHT22;57229;51.432;-2.598;2022-07-10T10:07:37;33.20;60.50
56256;DHT22;57229;51.432;-2.598;2022-07-10T10:10:04;32.90;60.20
56256;DHT22;57229;51.432;-2.598;2022-07-10T10:12:42;32.70;60.80
56256;DHT22;57229;51.432;-2.598;2022-07-10T10:15:10;32.50;61.10
56256;DHT22;57229;51.432;-2.598;2022-07-10T10:17:36;32.80;60.90
56256;DHT22;57229;51.432;-2.598;2022-07-10T10:20:04;33.20;59.90
56256;DHT22;57229;51.432;-2.598;2022-07-10T10:22:49;33.70;58.50
56256;DHT22;57229;51.432;-2.598;2022-07-10T10:25:16;33.40;57.50
56256;DHT22;57229;51.432;-2.598;2022-07-10T10:27:45;32.70;57.70
56256;DHT22;57229;51.432;-2.598;2022-07-10T10:30:11;33.00;57.70
56256;DHT22;57229;51.432;-2.598;2022-07-10T10:32:40;34.20;55.20
56256;DHT22;57229;51.432;-2.598;2022-07-10T10:35:06;34.60;55.40
56256;DHT22;57229;51.432;-2.598;2022-07-10T10:37:39;34.70;54.00
56256;DHT22;57229;51.432;-2.598;2022-07-10T10:40:10;34.70;54.70
56256;DHT22;57229;51.432;-2.598;2022-07-10T10:42:43;34.90;54.70
56256;DHT22;57229;51.432;-2.598;2022-07-10T10:45:33;34.60;55.40
56256;DHT22;57229;51.432;-2.598;2022-07-10T10:48:01;34.80;55.10
56256;DHT22;57229;51.432;-2.598;2022-07-10T10:53:25;32.80;56.90
56256;DHT22;57229;51.432;-2.598;2022-07-10T10:58:40;33.50;56.10
56256;DHT22;57229;51.432;-2.598;2022-07-10T11:01:24;34.20;56.80
56256;DHT22;57229;51.432;-2.598;2022-07-10T11:06:53;35.50;53.70
56256;DHT22;57229;51.432;-2.598;2022-07-10T11:09:31;35.20;52.30
56256;DHT22;57229;51.432;-2.598;2022-07-10T11:12:02;35.10;53.00
56256;DHT22;57229;51.432;-2.598;2022-07-10T11:14:30;35.10;52.10
56256;DHT22;57229;51.432;-2.598;2022-07-10T11:16:56;36.50;52.60
56256;DHT22;57229;51.432;-2.598;2022-07-10T11:19:27;37.00;52.80
56256;DHT22;57229;51.432;-2.598;2022-07-10T11:25:03;37.70;49.10
56256;DHT22;57229;51.432;-2.598;2022-07-10T11:30:01;37.80;49.00
56256;DHT22;57229;51.432;-2.598;2022-07-10T11:32:28;37.30;49.60
56256;DHT22;57229;51.432;-2.598;2022-07-10T11:34:55;37.40;49.00
56256;DHT22;57229;51.432;-2.598;2022-07-10T11:37:21;37.30;49.80
56256;DHT22;57229;51.432;-2.598;2022-07-10T11:39:48;36.90;50.10
56256;DHT22;57229;51.432;-2.598;2022-07-10T11:42:14;37.10;49.30
56256;DHT22;57229;51.432;-2.598;2022-07-10T11:44:40;37.40;49.10
56256;DHT22;57229;51.432;-2.598;2022-07-10T11:47:05;36.80;50.20
56256;DHT22;57229;51.432;-2.598;2022-07-10T11:49:33;35.70;51.50
56256;DHT22;57229;51.432;-2.598;2022-07-10T11:52:06;34.70;53.00
56256;DHT22;57229;51.432;-2.598;2022-07-10T11:54:32;34.00;55.10
56256;DHT22;57229;51.432;-2.598;2022-07-10T11:57:05;34.00;55.50
56256;DHT22;57229;51.432;-2.598;2022-07-10T11:59:32;34.70;55.00
56256;DHT22;57229;51.432;-2.598;2022-07-10T12:01:58;35.10;53.10
56256;DHT22;57229;51.432;-2.598;2022-07-10T12:04:24;35.00;54.90
56256;DHT22;57229;51.432;-2.598;2022-07-10T12:06:52;35.90;52.50
56256;DHT22;57229;51.432;-2.598;2022-07-10T12:09:22;35.80;51.00
56256;DHT22;57229;51.432;-2.598;2022-07-10T12:12:02;35.10;51.80
56256;DHT22;57229;51.432;-2.598;2022-07-10T12:14:28;35.20;52.00
56256;DHT22;57229;51.432;-2.598;2022-07-10T12:16:55;36.90;50.10
56256;DHT22;57229;51.432;-2.598;2022-07-10T12:19:24;38.10;47.60
56256;DHT22;57229;51.432;-2.598;2022-07-10T12:21:51;38.20;47.40
56256;DHT22;57229;51.432;-2.598;2022-07-10T12:24:17;38.40;47.10
56256;DHT22;57229;51.432;-2.598;2022-07-10T12:26:46;38.40;46.50
56256;DHT22;57229;51.432;-2.598;2022-07-10T12:31:46;38.60;46.80
56256;DHT22;57229;51.432;-2.598;2022-07-10T12:34:12;38.80;46.30
56256;DHT22;57229;51.432;-2.598;2022-07-10T12:36:49;39.00;47.30
56256;DHT22;57229;51.432;-2.598;2022-07-10T12:39:20;39.70;47.00
56256;DHT22;57229;51.432;-2.598;2022-07-10T12:47:11;37.80;45.00
56256;DHT22;57229;51.432;-2.598;2022-07-10T12:52:29;40.20;42.00
56256;DHT22;57229;51.432;-2.598;2022-07-10T12:57:56;39.90;41.90
56256;DHT22;57229;51.432;-2.598;2022-07-10T13:00:30;39.60;41.40
56256;DHT22;57229;51.432;-2.598;2022-07-10T13:03:09;40.10;41.30
56256;DHT22;57229;51.432;-2.598;2022-07-10T13:05:40;39.40;42.10
56256;DHT22;57229;51.432;-2.598;2022-07-10T13:08:15;39.80;42.40
56256;DHT22;57229;51.432;-2.598;2022-07-10T13:10:58;39.50;42.00
56256;DHT22;57229;51.432;-2.598;2022-07-10T13:13:27;38.00;42.40
56256;DHT22;57229;51.432;-2.598;2022-07-10T13:15:54;37.70;42.70
56256;DHT22;57229;51.432;-2.598;2022-07-10T13:18:22;37.40;44.00
56256;DHT22;57229;51.432;-2.598;2022-07-10T13:20:49;38.00;44.80
56256;DHT22;57229;51.432;-2.598;2022-07-10T13:23:16;38.40;43.90
56256;DHT22;57229;51.432;-2.598;2022-07-10T13:25:44;38.70;43.10
56256;DHT22;57229;51.432;-2.598;2022-07-10T13:28:10;39.40;42.60
56256;DHT22;57229;51.432;-2.598;2022-07-10T13:30:39;39.80;41.90
56256;DHT22;57229;51.432;-2.598;2022-07-10T13:33:06;39.30;40.90
56256;DHT22;57229;51.432;-2.598;2022-07-10T13:35:32;38.90;42.60
56256;DHT22;57229;51.432;-2.598;2022-07-10T13:37:59;39.60;40.90
56256;DHT22;57229;51.432;-2.598;2022-07-10T13:40:31;39.60;40.50
56256;DHT22;57229;51.432;-2.598;2022-07-10T13:43:00;38.70;41.90
56256;DHT22;57229;51.432;-2.598;2022-07-10T13:45:26;38.50;43.40
56256;DHT22;57229;51.432;-2.598;2022-07-10T13:47:57;39.10;42.20
56256;DHT22;57229;51.432;-2.598;2022-07-10T13:50:23;39.60;42.30
56256;DHT22;57229;51.432;-2.598;2022-07-10T13:52:50;38.50;44.50
56256;DHT22;57229;51.432;-2.598;2022-07-10T13:55:17;38.70;43.90
56256;DHT22;57229;51.432;-2.598;2022-07-10T13:57:43;38.50;44.80
56256;DHT22;57229;51.432;-2.598;2022-07-10T14:00:10;38.10;45.00
56256;DHT22;57229;51.432;-2.598;2022-07-10T14:02:36;38.60;44.60
56256;DHT22;57229;51.432;-2.598;2022-07-10T14:05:02;38.70;44.90
56256;DHT22;57229;51.432;-2.598;2022-07-10T14:07:28;40.40;44.10
56256;DHT22;57229;51.432;-2.598;2022-07-10T14:09:54;40.90;43.00
56256;DHT22;57229;51.432;-2.598;2022-07-10T14:12:21;41.10;42.50
56256;DHT22;57229;51.432;-2.598;2022-07-10T14:14:46;41.50;41.70
56256;DHT22;57229;51.432;-2.598;2022-07-10T14:17:12;39.90;41.10
56256;DHT22;57229;51.432;-2.598;2022-07-10T14:19:38;39.40;42.80
56256;DHT22;57229;51.432;-2.598;2022-07-10T14:22:06;38.30;43.50
56256;DHT22;57229;51.432;-2.598;2022-07-10T14:24:31;37.40;42.40
56256;DHT22;57229;51.432;-2.598;2022-07-10T14:26:57;38.30;42.70
56256;DHT22;57229;51.432;-2.598;2022-07-10T14:29:23;38.90;42.00
56256;DHT22;57229;51.432;-2.598;2022-07-10T14:31:51;39.20;41.20
56256;DHT22;57229;51.432;-2.598;2022-07-10T14:34:17;39.40;42.50
56256;DHT22;57229;51.432;-2.598;2022-07-10T14:36:44;40.00;40.00
56256;DHT22;57229;51.432;-2.598;2022-07-10T14:39:09;39.70;40.10
56256;DHT22;57229;51.432;-2.598;2022-07-10T14:41:37;38.30;40.40
56256;DHT22;57229;51.432;-2.598;2022-07-10T14:44:04;38.00;41.30
56256;DHT22;57229;51.432;-2.598;2022-07-10T14:46:30;38.10;40.60
56256;DHT22;57229;51.432;-2.598;2022-07-10T14:48:56;38.50;40.60
56256;DHT22;57229;51.432;-2.598;2022-07-10T14:51:21;39.50;39.40
56256;DHT22;57229;51.432;-2.598;2022-07-10T14:53:47;39.40;39.50
56256;DHT22;57229;51.432;-2.598;2022-07-10T14:56:13;38.30;41.00
56256;DHT22;57229;51.432;-2.598;2022-07-10T14:58:42;37.90;42.00
56256;DHT22;57229;51.432;-2.598;2022-07-10T15:01:08;38.30;40.50
56256;DHT22;57229;51.432;-2.598;2022-07-10T15:03:33;38.70;41.10
56256;DHT22;57229;51.432;-2.598;2022-07-10T15:05:59;39.50;39.90
56256;DHT22;57229;51.432;-2.598;2022-07-10T15:08:25;39.90;40.20
56256;DHT22;57229;51.432;-2.598;2022-07-10T15:10:52;40.70;39.60
56256;DHT22;57229;51.432;-2.598;2022-07-10T15:13:18;41.20;38.70
56256;DHT22;57229;51.432;-2.598;2022-07-10T15:15:44;40.50;39.10
56256;DHT22;57229;51.432;-2.598;2022-07-10T15:18:10;39.80;40.00
56256;DHT22;57229;51.432;-2.598;2022-07-10T15:20:37;39.60;39.50
56256;DHT22;57229;51.432;-2.598;2022-07-10T15:23:03;39.00;39.80
56256;DHT22;57229;51.432;-2.598;2022-07-10T15:25:29;38.50;39.70
56256;DHT22;57229;51.432;-2.598;2022-07-10T15:27:55;38.00;39.80
56256;DHT22;57229;51.432;-2.598;2022-07-10T15:30:21;38.20;39.60
56256;DHT22;57229;51.432;-2.598;2022-07-10T15:32:47;38.20;39.90
56256;DHT22;57229;51.432;-2.598;2022-07-10T15:35:13;38.60;39.20
56256;DHT22;57229;51.432;-2.598;2022-07-10T15:37:39;38.50;39.10
56256;DHT22;57229;51.432;-2.598;2022-07-10T15:40:05;38.40;39.20
56256;DHT22;57229;51.432;-2.598;2022-07-10T15:42:31;38.60;38.70
56256;DHT22;57229;51.432;-2.598;2022-07-10T15:44:57;37.60;38.80
56256;DHT22;57229;51.432;-2.598;2022-07-10T15:47:23;37.40;38.80
56256;DHT22;57229;51.432;-2.598;2022-07-10T15:49:49;37.80;38.20